Time;durP1;ratioP1;P1;durP2;ratioP2;P2;SDS_P1;SDS_P2;PMS_P1;PMS_P2;Temp;Humidity;BMP_temperature;BMP_pressure;BME280_temperature;BME280_humidity;BME280_pressure;Samples;Min_cycle;Max_cycle;Signal;HPM_P1;HPM_P2
2021/01/24 00:02:05;;;;;;;25.63;12.15;;;3.60;99.90;;;;;;5009160;28;20026;-60
2021/01/24 00:04:31;;;;;;;30.02;13.02;;;3.60;99.90;;;;;;5007842;28;20497;-59
2021/01/24 00:06:56;;;;;;;25.92;13.48;;;3.60;99.90;;;;;;4990290;28;20026;-60
2021/01/24 00:09:22;;;;;;;24.65;12.10;;;3.60;99.90;;;;;;4990898;28;20137;-60
2021/01/24 00:11:47;;;;;;;25.45;11.57;;;3.60;99.90;;;;;;5008644;28;20040;-60
2021/01/24 00:14:13;;;;;;;28.63;13.15;;;3.50;99.90;;;;;;5008729;28;20052;-61
2021/01/24 00:16:39;;;;;;;26.92;13.00;;;3.50;99.90;;;;;;5009905;28;20113;-60
2021/01/24 00:19:05;;;;;;;25.17;12.68;;;3.50;99.90;;;;;;5026213;28;20104;-59
2021/01/24 00:21:30;;;;;;;27.10;12.20;;;3.40;99.90;;;;;;5028916;28;20045;-60
2021/01/24 00:23:56;;;;;;;27.77;13.25;;;3.30;99.90;;;;;;5030586;28;20479;-62
2021/01/24 00:26:21;;;;;;;27.45;13.40;;;3.30;99.90;;;;;;5044578;28;20064;-61
2021/01/24 00:28:47;;;;;;;24.55;11.70;;;3.30;99.90;;;;;;5027259;28;20024;-59
2021/01/24 00:31:12;;;;;;;25.40;12.40;;;3.30;99.90;;;;;;5026466;28;20132;-62
2021/01/24 00:33:38;;;;;;;29.20;13.45;;;3.40;99.90;;;;;;5030026;28;20506;-61
2021/01/24 00:36:04;;;;;;;27.88;12.68;;;3.40;99.90;;;;;;5031614;28;20030;-61
2021/01/24 00:38:30;;;;;;;29.40;12.93;;;3.40;99.90;;;;;;5026773;28;20033;-60
2021/01/24 00:40:56;;;;;;;27.52;12.00;;;3.40;99.90;;;;;;5028568;28;20507;-60
2021/01/24 00:43:21;;;;;;;26.17;13.38;;;3.40;99.90;;;;;;5035345;28;20153;-61
2021/01/24 00:45:48;;;;;;;27.80;13.52;;;3.40;99.90;;;;;;5046368;28;20121;-60
2021/01/24 00:48:15;;;;;;;28.52;12.57;;;3.40;99.90;;;;;;5025898;28;20064;-62
2021/01/24 00:50:42;;;;;;;26.75;11.95;;;3.40;99.90;;;;;;5025768;28;20025;-60
2021/01/24 00:53:08;;;;;;;30.10;12.73;;;3.40;99.90;;;;;;5044993;28;20118;-55
2021/01/24 00:55:33;;;;;;;27.90;12.65;;;3.30;99.90;;;;;;5028316;28;20481;-61
2021/01/24 00:57:59;;;;;;;27.35;12.80;;;3.30;99.90;;;;;;5042619;28;20071;-62
2021/01/24 01:00:25;;;;;;;26.67;13.27;;;3.30;99.90;;;;;;5026361;28;20030;-59
2021/01/24 01:02:50;;;;;;;43.88;24.65;;;3.30;99.90;;;;;;5058264;23;20049;-59
2021/01/24 01:05:16;;;;;;;36.03;18.30;;;3.30;99.90;;;;;;5050961;28;20025;-55
2021/01/24 01:07:42;;;;;;;25.20;12.52;;;3.40;99.90;;;;;;5052391;28;20028;-55
2021/01/24 01:10:08;;;;;;;28.55;13.10;;;3.40;99.90;;;;;;5034180;28;20029;-60
2021/01/24 01:12:34;;;;;;;27.88;12.57;;;3.40;99.90;;;;;;5035944;28;20026;-58
2021/01/24 01:14:59;;;;;;;26.35;11.73;;;3.40;99.90;;;;;;5031428;28;20533;-52
2021/01/24 01:17:25;;;;;;;28.13;12.15;;;3.40;99.90;;;;;;5031380;28;20034;-54
2021/01/24 01:19:50;;;;;;;26.80;12.02;;;3.30;99.90;;;;;;5031889;28;20033;-55
2021/01/24 01:22:16;;;;;;;26.52;12.43;;;3.30;99.90;;;;;;5029471;28;20022;-54
2021/01/24 01:24:42;;;;;;;28.20;12.88;;;3.30;99.90;;;;;;5032337;28;20033;-53
2021/01/24 01:27:07;;;;;;;32.97;14.07;;;3.40;99.90;;;;;;5032517;28;20464;-53
2021/01/24 01:29:33;;;;;;;27.42;13.05;;;3.30;99.90;;;;;;5032076;28;20029;-53
2021/01/24 01:31:59;;;;;;;27.75;13.10;;;3.30;99.90;;;;;;5031494;28;20121;-53
2021/01/24 01:34:24;;;;;;;28.73;12.45;;;3.20;99.90;;;;;;5030970;28;20108;-53
2021/01/24 01:36:50;;;;;;;27.70;12.55;;;3.20;99.90;;;;;;5031179;28;20022;-52
2021/01/24 01:39:16;;;;;;;25.10;12.13;;;3.20;99.90;;;;;;5031848;28;20029;-53
2021/01/24 01:41:42;;;;;;;25.65;12.23;;;3.20;99.90;;;;;;5032418;28;20208;-57
2021/01/24 01:44:08;;;;;;;27.83;12.82;;;3.30;99.90;;;;;;5030959;28;20056;-54
2021/01/24 01:46:34;;;;;;;26.65;12.30;;;3.30;99.90;;;;;;5030982;28;20021;-58
2021/01/24 01:48:59;;;;;;;26.23;12.20;;;3.30;99.90;;;;;;5031374;28;20499;-55
2021/01/24 01:51:25;;;;;;;25.00;12.73;;;3.30;99.90;;;;;;5032110;28;20021;-58
2021/01/24 01:53:52;;;;;;;28.17;12.07;;;3.30;99.90;;;;;;5032078;28;20071;-52
2021/01/24 01:56:18;;;;;;;23.70;11.00;;;3.30;99.90;;;;;;5030576;28;20080;-53
2021/01/24 01:58:44;;;;;;;29.10;12.60;;;3.30;99.90;;;;;;5016223;28;20033;-54
2021/01/24 02:01:50;;;;;;;25.48;11.05;;;3.30;99.90;;;;;;5031674;28;20026;-55
2021/01/24 02:04:41;;;;;;;27.63;12.10;;;3.20;99.90;;;;;;5013438;28;20052;-58
2021/01/24 02:07:17;;;;;;;25.60;11.85;;;3.20;99.90;;;;;;5032184;28;20032;-54
2021/01/24 02:09:58;;;;;;;27.83;12.65;;;3.30;99.90;;;;;;5031668;28;20034;-57
2021/01/24 02:12:50;;;;;;;23.52;11.65;;;3.30;99.90;;;;;;5032131;28;20448;-58
2021/01/24 02:15:19;;;;;;;26.65;12.23;;;3.30;99.90;;;;;;5032102;28;20112;-56
2021/01/24 02:17:55;;;;;;;27.10;12.70;;;3.30;99.90;;;;;;5031252;28;20024;-57
2021/01/24 02:20:56;;;;;;;26.15;11.63;;;3.40;99.90;;;;;;5014043;28;20414;-52
2021/01/24 02:23:24;;;;;;;28.08;12.30;;;3.30;99.90;;;;;;5031878;28;20024;-54
2021/01/24 02:26:14;;;;;;;26.05;11.25;;;3.40;99.90;;;;;;5031998;28;20021;-53
2021/01/24 02:29:00;;;;;;;26.33;12.35;;;3.40;99.90;;;;;;5013600;28;20041;-57
2021/01/24 02:31:28;;;;;;;22.85;10.52;;;3.40;99.90;;;;;;5031938;28;20044;-50
2021/01/24 02:33:56;;;;;;;26.17;12.88;;;3.50;99.90;;;;;;5031769;28;20107;-53
2021/01/24 02:36:24;;;;;;;26.20;11.00;;;3.50;99.90;;;;;;5031760;28;20025;-54
2021/01/24 02:38:54;;;;;;;23.60;10.88;;;3.50;99.90;;;;;;5023867;28;20026;-53
2021/01/24 02:41:21;;;;;;;24.95;10.77;;;3.50;99.90;;;;;;5034348;28;20448;-54
2021/01/24 02:43:48;;;;;;;24.85;11.30;;;3.50;99.90;;;;;;5017845;28;20057;-55
2021/01/24 02:46:16;;;;;;;23.38;10.70;;;3.50;99.90;;;;;;5035491;28;20029;-57
2021/01/24 02:48:46;;;;;;;26.70;10.77;;;3.50;99.90;;;;;;5033365;28;20076;-56
2021/01/24 02:51:13;;;;;;;23.92;11.23;;;3.50;99.90;;;;;;5028825;28;20284;-57
2021/01/24 02:53:40;;;;;;;24.35;10.90;;;3.50;99.90;;;;;;5035600;28;20033;-59
2021/01/24 02:56:07;;;;;;;23.23;10.48;;;3.50;99.90;;;;;;5034262;28;20034;-57
2021/01/24 02:58:34;;;;;;;24.77;11.40;;;3.50;99.90;;;;;;5034835;28;20026;-58
2021/01/24 03:00:59;;;;;;;25.25;11.15;;;3.50;99.90;;;;;;5017536;28;20084;-58
2021/01/24 03:03:25;;;;;;;25.98;12.30;;;3.50;99.90;;;;;;5017445;28;20116;-59
2021/01/24 03:05:51;;;;;;;23.83;10.38;;;3.50;99.90;;;;;;5035173;28;20022;-52
2021/01/24 03:08:18;;;;;;;22.42;9.57;;;3.50;99.90;;;;;;5016854;28;20025;-57
2021/01/24 03:10:43;;;;;;;24.23;11.60;;;3.50;99.90;;;;;;5017534;28;20014;-55
2021/01/24 03:13:15;;;;;;;24.45;10.50;;;3.50;99.90;;;;;;5017162;28;20025;-56
2021/01/24 03:15:43;;;;;;;24.00;10.10;;;3.50;99.90;;;;;;5035021;28;20488;-56
2021/01/24 03:18:14;;;;;;;23.58;10.50;;;3.50;99.90;;;;;;5016852;28;20491;-53
2021/01/24 03:20:43;;;;;;;23.65;10.55;;;3.60;99.90;;;;;;5034843;28;20112;-59
2021/01/24 03:23:09;;;;;;;23.92;11.13;;;3.60;99.90;;;;;;5034436;28;20025;-59
2021/01/24 03:25:38;;;;;;;24.02;11.00;;;3.60;99.90;;;;;;5033953;28;20034;-57
2021/01/24 03:28:06;;;;;;;25.38;10.82;;;3.60;99.90;;;;;;5034528;28;20036;-56
2021/01/24 03:30:32;;;;;;;23.58;10.93;;;3.60;99.90;;;;;;5029497;28;20021;-56
2021/01/24 03:32:58;;;;;;;24.25;10.05;;;3.60;99.90;;;;;;5034797;28;20025;-54
2021/01/24 03:35:25;;;;;;;24.27;10.15;;;3.60;99.90;;;;;;5034632;28;20029;-53
2021/01/24 03:37:50;;;;;;;24.17;10.60;;;3.60;99.90;;;;;;5033224;28;20508;-56
2021/01/24 03:40:16;;;;;;;24.83;10.65;;;3.60;99.90;;;;;;5034000;28;20029;-49
2021/01/24 03:42:42;;;;;;;24.27;9.98;;;3.60;99.90;;;;;;5034565;28;20527;-57
2021/01/24 03:45:09;;;;;;;25.50;10.40;;;3.60;99.90;;;;;;5016637;28;20034;-55
2021/01/24 03:47:35;;;;;;;28.42;14.85;;;3.60;99.90;;;;;;5033710;28;20032;-53
2021/01/24 03:50:02;;;;;;;30.55;16.13;;;3.70;99.90;;;;;;5024267;28;20033;-56
2021/01/24 03:52:28;;;;;;;29.30;13.82;;;3.70;99.90;;;;;;5028577;28;20029;-55
2021/01/24 03:54:54;;;;;;;27.13;12.38;;;3.60;99.90;;;;;;5028775;28;20036;-58
2021/01/24 03:57:20;;;;;;;24.77;12.13;;;3.60;99.90;;;;;;5025256;28;20393;-57
2021/01/24 03:59:49;;;;;;;27.58;12.82;;;3.60;99.90;;;;;;5031977;28;20036;-56
2021/01/24 04:02:16;;;;;;;27.63;13.45;;;3.60;99.90;;;;;;5032839;28;20477;-56
2021/01/24 04:04:41;;;;;;;23.90;11.43;;;3.60;99.90;;;;;;5030625;28;20034;-58
2021/01/24 04:07:07;;;;;;;26.08;12.13;;;3.60;99.90;;;;;;5016344;28;20032;-54
2021/01/24 04:09:33;;;;;;;24.80;12.52;;;3.60;99.90;;;;;;5032934;28;20032;-56
2021/01/24 04:11:59;;;;;;;24.40;11.68;;;3.70;99.90;;;;;;5016384;28;20481;-55
2021/01/24 04:14:25;;;;;;;25.85;11.80;;;3.70;99.90;;;;;;5015791;28;20032;-54
2021/01/24 04:16:51;;;;;;;24.75;11.93;;;3.70;99.90;;;;;;5034286;28;20021;-55
2021/01/24 04:19:17;;;;;;;26.88;12.85;;;3.60;99.90;;;;;;5028347;28;20022;-52
2021/01/24 04:21:43;;;;;;;22.88;10.55;;;3.60;99.90;;;;;;5028544;28;20087;-54
2021/01/24 04:24:09;;;;;;;22.38;10.77;;;3.60;99.90;;;;;;5015632;28;20033;-55
2021/01/24 04:26:35;;;;;;;24.63;11.50;;;3.60;99.90;;;;;;5033772;28;20033;-58
2021/01/24 04:29:01;;;;;;;27.70;11.93;;;3.50;99.90;;;;;;5032950;28;20025;-55
2021/01/24 04:31:27;;;;;;;24.52;10.82;;;3.50;99.90;;;;;;5033097;28;20481;-56
2021/01/24 04:33:52;;;;;;;24.70;11.82;;;3.50;99.90;;;;;;5033450;28;20033;-58
2021/01/24 04:36:18;;;;;;;23.92;10.75;;;3.50;99.90;;;;;;5033576;28;20040;-56
2021/01/24 04:38:44;;;;;;;23.80;10.43;;;3.50;99.90;;;;;;5032587;28;20025;-56
2021/01/24 04:41:10;;;;;;;22.75;10.95;;;3.50;99.90;;;;;;5032208;28;20500;-58
2021/01/24 04:43:36;;;;;;;26.65;11.30;;;3.50;99.90;;;;;;5022789;28;20104;-55
2021/01/24 04:46:02;;;;;;;23.55;10.02;;;3.60;99.90;;;;;;5033384;28;20580;-53
2021/01/24 04:48:29;;;;;;;25.83;11.05;;;3.50;99.90;;;;;;5014893;28;20405;-57
2021/01/24 04:50:55;;;;;;;25.05;11.07;;;3.50;99.90;;;;;;5032763;28;20079;-58
2021/01/24 04:53:21;;;;;;;25.17;11.57;;;3.50;99.90;;;;;;5032952;28;20420;-57
2021/01/24 04:55:49;;;;;;;25.77;11.07;;;3.50;99.90;;;;;;5032986;28;20072;-57
2021/01/24 04:58:15;;;;;;;25.05;10.63;;;3.50;99.90;;;;;;5021343;28;20026;-56
2021/01/24 05:00:41;;;;;;;26.38;12.70;;;3.50;99.90;;;;;;5031886;28;20532;-58
2021/01/24 05:03:06;;;;;;;25.55;11.20;;;3.40;99.90;;;;;;5031546;28;20037;-57
2021/01/24 05:05:32;;;;;;;28.08;13.77;;;3.40;99.90;;;;;;5014958;28;20477;-58
2021/01/24 05:07:59;;;;;;;30.25;14.13;;;3.40;99.90;;;;;;5032683;28;20022;-58
2021/01/24 05:10:29;;;;;;;29.13;13.70;;;3.20;99.90;;;;;;5032436;28;20018;-53
2021/01/24 05:12:57;;;;;;;29.77;14.02;;;3.20;99.90;;;;;;5032682;28;20693;-55
2021/01/24 05:15:23;;;;;;;30.50;14.75;;;3.20;99.90;;;;;;5032661;28;20018;-55
2021/01/24 05:17:54;;;;;;;32.65;15.63;;;3.20;99.90;;;;;;5032461;28;20049;-55
2021/01/24 05:20:27;;;;;;;31.83;15.40;;;3.10;99.90;;;;;;5014048;28;20061;-57
2021/01/24 05:22:54;;;;;;;32.70;15.52;;;3.10;99.90;;;;;;5032802;28;20501;-57
2021/01/24 05:25:26;;;;;;;33.15;17.67;;;3.20;99.90;;;;;;5032729;28;20036;-58
2021/01/24 05:27:53;;;;;;;32.85;16.48;;;3.20;99.90;;;;;;5032527;28;20029;-55
2021/01/24 05:30:30;;;;;;;32.88;16.20;;;3.10;99.90;;;;;;5032240;28;20102;-57
2021/01/24 05:32:58;;;;;;;33.42;16.77;;;3.10;99.90;;;;;;5030896;28;20304;-52
2021/01/24 05:35:24;;;;;;;31.55;16.80;;;3.10;99.90;;;;;;5032511;28;20104;-56
2021/01/24 05:37:49;;;;;;;32.53;17.33;;;3.10;99.90;;;;;;5032156;28;20083;-54
2021/01/24 05:40:15;;;;;;;34.28;17.65;;;3.10;99.90;;;;;;5032009;28;20028;-53
2021/01/24 05:42:41;;;;;;;32.42;16.48;;;3.00;99.90;;;;;;5014625;28;20024;-52
2021/01/24 05:45:15;;;;;;;32.35;17.20;;;2.90;99.90;;;;;;5032547;28;20405;-54
2021/01/24 05:47:45;;;;;;;34.10;16.83;;;2.80;99.90;;;;;;5032124;28;20025;-52
2021/01/24 05:50:16;;;;;;;33.03;16.52;;;2.70;99.90;;;;;;5032205;28;20029;-55
2021/01/24 05:52:47;;;;;;;33.83;16.40;;;2.70;99.90;;;;;;5016504;28;20044;-55
2021/01/24 05:55:32;;;;;;;32.80;15.25;;;2.60;99.90;;;;;;5032202;28;20392;-54
2021/01/24 05:57:59;;;;;;;32.97;16.27;;;2.60;99.90;;;;;;5028335;28;20084;-56
2021/01/24 06:00:25;;;;;;;32.90;17.20;;;2.60;99.90;;;;;;5031704;28;20060;-58
2021/01/24 06:02:53;;;;;;;30.80;15.85;;;2.50;99.90;;;;;;5031999;28;20396;-56
2021/01/24 06:05:18;;;;;;;32.95;16.70;;;2.40;99.90;;;;;;5031350;28;20087;-57
2021/01/24 06:07:44;;;;;;;33.30;15.75;;;2.40;99.90;;;;;;5028478;28;20037;-56
2021/01/24 06:10:10;;;;;;;35.42;17.55;;;2.40;99.90;;;;;;5032087;28;20140;-55
2021/01/24 06:12:38;;;;;;;31.77;16.92;;;2.30;99.90;;;;;;5031371;28;20052;-58
2021/01/24 06:15:06;;;;;;;33.70;17.05;;;2.20;99.90;;;;;;5032032;28;20026;-54
2021/01/24 06:17:41;;;;;;;34.53;17.60;;;2.20;99.90;;;;;;5032151;28;20030;-57
2021/01/24 06:20:08;;;;;;;32.28;16.90;;;2.10;99.90;;;;;;5031830;28;20018;-59
2021/01/24 06:22:52;;;;;;;34.65;17.90;;;2.10;99.90;;;;;;5031745;28;20029;-56
2021/01/24 06:25:23;;;;;;;35.45;16.65;;;2.00;99.90;;;;;;5027407;28;20026;-52
2021/01/24 06:28:14;;;;;;;33.85;17.33;;;2.00;99.90;;;;;;5031586;28;20028;-55
2021/01/24 06:30:45;;;;;;;34.88;18.95;;;2.00;99.90;;;;;;5031440;28;20485;-57
2021/01/24 06:33:17;;;;;;;38.25;18.00;;;2.10;99.90;;;;;;5032005;28;20021;-53
2021/01/24 06:35:45;;;;;;;39.65;20.15;;;2.10;99.90;;;;;;5031615;28;20508;-57
2021/01/24 06:38:24;;;;;;;46.25;20.60;;;2.00;99.90;;;;;;5017733;28;20117;-56
2021/01/24 06:40:50;;;;;;;42.67;22.95;;;2.00;99.90;;;;;;5030366;28;20033;-55
2021/01/24 06:43:48;;;;;;;43.72;22.90;;;2.10;99.90;;;;;;5030461;28;20043;-52
2021/01/24 06:46:29;;;;;;;44.75;23.02;;;2.20;99.90;;;;;;5031632;28;20029;-55
2021/01/24 06:48:57;;;;;;;44.85;21.95;;;2.20;99.90;;;;;;5030933;28;20026;-53
2021/01/24 06:51:42;;;;;;;41.90;20.30;;;2.40;99.90;;;;;;5031663;28;20476;-51
2021/01/24 06:54:14;;;;;;;41.80;22.40;;;2.40;99.90;;;;;;5030985;28;20440;-56
2021/01/24 06:56:42;;;;;;;43.08;22.45;;;2.40;99.90;;;;;;5022152;28;20029;-55
2021/01/24 06:59:08;;;;;;;;;;;2.50;99.90;;;;;;5031365;28;20409;-56
2021/01/24 07:01:39;;;;;;;42.90;21.40;;;2.50;99.90;;;;;;5022548;28;19955;-52
2021/01/24 07:04:17;;;;;;;46.90;22.25;;;2.50;99.90;;;;;;5055335;23;20131;-57
2021/01/24 07:06:55;;;;;;;41.53;20.80;;;2.50;99.90;;;;;;5051410;28;20033;-60
2021/01/24 07:09:24;;;;;;;46.85;24.55;;;2.50;99.90;;;;;;5048776;28;20039;-61
2021/01/24 07:11:50;;;;;;;37.95;19.00;;;2.50;99.90;;;;;;5051538;28;20028;-58
2021/01/24 07:14:31;;;;;;;43.90;21.52;;;2.50;99.90;;;;;;5030802;28;20022;-58
2021/01/24 07:17:09;;;;;;;41.13;21.35;;;2.50;99.90;;;;;;5031380;28;20075;-62
2021/01/24 07:19:43;;;;;;;43.83;21.67;;;2.40;99.90;;;;;;5029447;28;20026;-57
2021/01/24 07:22:12;;;;;;;44.20;22.67;;;2.40;99.90;;;;;;5031139;28;20108;-60
2021/01/24 07:24:39;;;;;;;46.20;22.90;;;2.40;99.90;;;;;;5031329;28;20036;-61
2021/01/24 07:27:19;;;;;;;36.05;17.35;;;2.40;99.90;;;;;;5034806;28;20026;-60
2021/01/24 07:29:46;;;;;;;39.78;18.70;;;2.40;99.90;;;;;;5034241;28;20030;-58
2021/01/24 07:32:16;;;;;;;38.70;19.40;;;2.30;99.90;;;;;;5034723;28;20049;-57
2021/01/24 07:34:47;;;;;;;43.90;19.90;;;2.30;99.90;;;;;;5034592;28;20067;-61
2021/01/24 07:37:13;;;;;;;38.67;18.92;;;2.30;99.90;;;;;;5034671;28;20029;-61
2021/01/24 07:39:40;;;;;;;33.90;17.20;;;2.40;99.90;;;;;;5034220;28;20117;-61
2021/01/24 07:42:06;;;;;;;33.15;17.00;;;2.30;99.90;;;;;;5033681;28;20030;-61
2021/01/24 07:44:32;;;;;;;32.17;14.90;;;2.20;99.90;;;;;;5034895;28;20025;-61
2021/01/24 07:46:58;;;;;;;31.95;17.02;;;2.20;99.90;;;;;;5035173;28;20493;-59
2021/01/24 07:49:24;;;;;;;38.60;15.90;;;2.20;99.90;;;;;;5034623;28;20493;-61
2021/01/24 07:51:50;;;;;;;29.33;14.13;;;2.20;99.90;;;;;;5034792;28;20108;-61
2021/01/24 07:54:17;;;;;;;30.70;13.60;;;2.30;99.90;;;;;;5034235;28;20025;-56
2021/01/24 07:56:44;;;;;;;36.45;18.58;;;2.20;99.90;;;;;;5028740;28;20061;-61
2021/01/24 07:59:10;;;;;;;35.50;17.45;;;2.20;99.90;;;;;;5023044;28;20516;-58
2021/01/24 08:01:37;;;;;;;34.95;17.13;;;2.20;99.90;;;;;;5034218;28;20052;-61
2021/01/24 08:04:06;;;;;;;38.63;18.88;;;2.20;99.90;;;;;;5033030;28;20500;-60
2021/01/24 08:06:35;;;;;;;37.60;18.17;;;2.20;99.90;;;;;;5019878;28;20029;-57
2021/01/24 08:09:07;;;;;;;36.53;18.05;;;2.20;99.90;;;;;;5028191;28;20240;-56
2021/01/24 08:11:33;;;;;;;39.08;16.23;;;2.10;99.90;;;;;;5027101;28;20399;-56
2021/01/24 08:13:59;;;;;;;38.17;16.45;;;2.20;99.90;;;;;;5032212;28;20030;-58
2021/01/24 08:16:29;;;;;;;34.47;17.85;;;2.20;99.90;;;;;;5016289;28;20113;-58
2021/01/24 08:18:56;;;;;;;35.80;18.80;;;2.20;99.90;;;;;;5017882;28;20172;-59
2021/01/24 08:21:23;;;;;;;34.47;16.95;;;2.20;99.90;;;;;;5033897;28;20099;-56
2021/01/24 08:23:49;;;;;;;35.50;15.43;;;2.20;99.90;;;;;;5033525;28;20022;-59
2021/01/24 08:26:16;;;;;;;42.40;18.00;;;2.20;99.90;;;;;;5033575;28;20032;-60
2021/01/24 08:28:43;;;;;;;38.40;16.38;;;2.30;99.90;;;;;;5033782;28;20033;-59
2021/01/24 08:31:08;;;;;;;38.45;17.63;;;2.30;99.90;;;;;;5032622;28;20449;-60
2021/01/24 08:33:37;;;;;;;35.42;16.55;;;2.40;99.90;;;;;;5033609;28;20071;-58
2021/01/24 08:36:17;;;;;;;38.10;18.02;;;2.40;99.90;;;;;;5032948;28;20079;-59
2021/01/24 08:38:44;;;;;;;42.88;19.20;;;2.40;99.90;;;;;;5031035;28;20045;-60
2021/01/24 08:41:10;;;;;;;39.97;18.45;;;2.40;99.90;;;;;;5031931;28;20018;-64
2021/01/24 08:43:36;;;;;;;41.08;19.05;;;2.40;99.90;;;;;;5033320;28;20060;-57
2021/01/24 08:46:18;;;;;;;41.85;20.67;;;2.40;99.90;;;;;;5015445;28;20075;-60
2021/01/24 08:48:44;;;;;;;45.60;23.80;;;2.40;99.90;;;;;;5033762;28;20032;-64
2021/01/24 08:51:10;;;;;;;44.50;21.10;;;2.40;99.90;;;;;;5015527;28;20029;-59
2021/01/24 08:53:36;;;;;;;40.00;21.08;;;2.40;99.90;;;;;;5033066;28;20030;-58
2021/01/24 08:56:01;;;;;;;43.30;19.27;;;2.40;99.90;;;;;;5033310;28;20028;-59
2021/01/24 08:58:28;;;;;;;42.08;21.75;;;2.50;99.90;;;;;;5033038;28;20168;-58
2021/01/24 09:01:07;;;;;;;44.45;22.08;;;2.50;99.90;;;;;;5015391;28;20031;-58
2021/01/24 09:03:32;;;;;;;47.55;24.02;;;2.50;99.90;;;;;;5032278;28;20033;-60
2021/01/24 09:06:15;;;;;;;43.60;22.92;;;2.50;99.90;;;;;;5031309;28;20427;-58
2021/01/24 09:08:50;;;;;;;48.67;22.08;;;2.50;99.90;;;;;;5020322;28;20022;-58
2021/01/24 09:11:16;;;;;;;40.13;18.83;;;2.50;99.90;;;;;;4995586;28;20017;-56
2021/01/24 09:13:41;;;;;;;42.67;21.02;;;2.60;99.90;;;;;;5013058;28;20026;-57
2021/01/24 09:16:07;;;;;;;44.47;20.35;;;2.60;99.90;;;;;;5013185;28;20053;-56
2021/01/24 09:18:33;;;;;;;34.67;16.95;;;2.60;99.90;;;;;;5017064;28;20025;-52
2021/01/24 09:21:01;;;;;;;44.60;20.77;;;2.60;99.90;;;;;;5031754;28;20358;-50
2021/01/24 09:23:26;;;;;;;41.75;19.88;;;2.60;99.90;;;;;;5032788;28;20096;-52
2021/01/24 09:25:52;;;;;;;45.28;21.17;;;2.50;99.90;;;;;;5032743;28;20532;-51
2021/01/24 09:28:18;;;;;;;40.13;19.50;;;2.60;99.90;;;;;;5032859;28;20091;-52
2021/01/24 09:30:44;;;;;;;39.30;19.00;;;2.60;99.90;;;;;;5014572;28;20132;-53
2021/01/24 09:33:09;;;;;;;38.40;17.27;;;2.60;99.90;;;;;;5031936;28;20382;-52
2021/01/24 09:35:35;;;;;;;40.28;20.25;;;2.60;99.90;;;;;;5032269;28;20028;-53
2021/01/24 09:38:00;;;;;;;40.28;19.90;;;2.70;99.90;;;;;;5032526;28;20028;-52
2021/01/24 09:40:26;;;;;;;40.38;19.70;;;2.70;99.90;;;;;;5032317;28;20366;-53
2021/01/24 09:42:52;;;;;;;34.95;16.60;;;2.70;99.90;;;;;;5014551;28;20044;-55
2021/01/24 09:45:17;;;;;;;40.03;18.55;;;2.80;99.90;;;;;;5015512;28;20037;-56
2021/01/24 09:47:43;;;;;;;35.28;17.23;;;2.80;99.90;;;;;;5013374;28;20424;-54
2021/01/24 09:50:10;;;;;;;39.60;19.27;;;2.90;99.90;;;;;;5019393;28;20485;-53
2021/01/24 09:52:36;;;;;;;35.50;17.20;;;2.80;99.90;;;;;;5014453;28;20029;-56
2021/01/24 09:55:03;;;;;;;37.30;16.48;;;2.90;99.90;;;;;;5032602;28;20590;-59
2021/01/24 09:57:28;;;;;;;43.47;20.08;;;2.90;99.90;;;;;;5032317;28;20033;-51
2021/01/24 09:59:54;;;;;;;43.22;18.33;;;2.90;99.90;;;;;;5014428;28;20021;-52
2021/01/24 10:02:20;;;;;;;35.83;17.08;;;3.10;99.90;;;;;;5031977;28;20037;-52
2021/01/24 10:04:45;;;;;;;35.50;16.50;;;2.90;99.90;;;;;;5014531;28;20413;-54
2021/01/24 10:07:11;;;;;;;36.80;19.00;;;3.00;99.90;;;;;;5032116;28;20025;-53
2021/01/24 10:09:37;;;;;;;43.00;20.95;;;3.00;99.90;;;;;;5027807;28;20025;-47
2021/01/24 10:12:04;;;;;;;37.63;18.08;;;;;;;;;;5014809;28;20032;-45
2021/01/24 10:14:30;;;;;;;39.50;19.35;;;3.20;99.90;;;;;;5031865;28;20392;-48
2021/01/24 10:16:55;;;;;;;42.22;18.23;;;3.10;99.90;;;;;;5013915;28;20051;-47
2021/01/24 10:19:21;;;;;;;41.45;17.52;;;3.20;99.90;;;;;;5031513;28;20022;-48
2021/01/24 10:21:47;;;;;;;37.55;17.52;;;3.10;99.90;;;;;;5014285;28;20381;-48
2021/01/24 10:24:12;;;;;;;41.75;18.80;;;3.20;99.90;;;;;;5031994;28;20033;-53
2021/01/24 10:26:38;;;;;;;36.67;16.95;;;3.20;99.90;;;;;;5026573;28;20108;-52
2021/01/24 10:29:04;;;;;;;35.38;17.67;;;3.40;99.90;;;;;;5031869;28;20087;-50
2021/01/24 10:31:29;;;;;;;34.47;14.70;;;3.30;99.90;;;;;;5032038;28;20029;-48
2021/01/24 10:33:56;;;;;;;34.55;15.85;;;3.30;99.90;;;;;;5030534;28;20050;-48
2021/01/24 10:36:21;;;;;;;31.25;14.57;;;3.30;99.90;;;;;;5030997;28;20079;-47
2021/01/24 10:38:49;;;;;;;32.47;14.57;;;3.20;99.90;;;;;;5031814;28;20498;-48
2021/01/24 10:41:14;;;;;;;29.52;12.95;;;3.10;99.90;;;;;;5031951;28;20438;-49
2021/01/24 10:43:40;;;;;;;30.15;14.27;;;3.00;99.90;;;;;;5031958;28;20029;-46
2021/01/24 10:46:06;;;;;;;32.15;12.93;;;3.00;99.90;;;;;;5027472;28;20033;-49
2021/01/24 10:48:32;;;;;;;27.17;11.30;;;2.90;99.90;;;;;;5013745;28;20025;-46
2021/01/24 10:50:57;;;;;;;30.40;12.27;;;2.90;99.90;;;;;;5031729;28;20022;-48
2021/01/24 10:53:23;;;;;;;27.08;12.48;;;2.90;99.90;;;;;;5030963;28;20025;-51
2021/01/24 10:55:49;;;;;;;27.83;11.20;;;2.80;99.90;;;;;;5031940;28;20573;-55
2021/01/24 10:58:14;;;;;;;25.83;10.95;;;2.90;99.90;;;;;;5032861;28;20029;-54
2021/01/24 11:00:40;;;;;;;26.33;10.70;;;2.90;99.90;;;;;;5012687;28;20040;-50
2021/01/24 11:03:06;;;;;;;24.55;9.38;;;2.80;99.90;;;;;;5030729;28;20109;-56
2021/01/24 11:05:33;;;;;;;25.88;9.18;;;2.90;99.90;;;;;;5022130;28;20033;-52
2021/01/24 11:07:58;;;;;;;23.85;10.07;;;2.90;99.90;;;;;;5035282;28;20388;-55
2021/01/24 11:10:24;;;;;;;22.50;9.00;;;3.00;99.90;;;;;;5004411;28;20034;-49
2021/01/24 11:12:50;;;;;;;23.33;8.90;;;3.00;99.90;;;;;;5015547;28;20037;-51
2021/01/24 11:15:16;;;;;;;23.58;8.38;;;3.10;99.90;;;;;;5016396;28;20489;-55
2021/01/24 11:17:41;;;;;;;22.88;7.90;;;3.20;99.90;;;;;;5001619;28;20516;-55
2021/01/24 11:20:08;;;;;;;27.15;9.45;;;3.20;99.90;;;;;;5035216;28;20417;-54
2021/01/24 11:22:36;;;;;;;23.05;9.38;;;3.40;99.90;;;;;;5016507;28;20101;-51
2021/01/24 11:25:02;;;;;;;24.02;9.02;;;3.30;99.90;;;;;;5033883;28;20036;-50
2021/01/24 11:27:27;;;;;;;22.27;8.52;;;3.30;99.90;;;;;;5026510;28;20652;-52
2021/01/24 11:29:53;;;;;;;21.23;8.75;;;3.40;99.90;;;;;;5032451;28;20061;-49
2021/01/24 11:32:19;;;;;;;20.90;7.22;;;3.50;99.90;;;;;;5032726;28;20116;-54
2021/01/24 11:34:45;;;;;;;21.52;7.45;;;3.50;99.90;;;;;;5034939;28;20029;-52
2021/01/24 11:37:10;;;;;;;21.38;7.85;;;3.40;99.90;;;;;;5034793;28;20028;-52
2021/01/24 11:39:36;;;;;;;20.75;7.35;;;3.50;99.90;;;;;;5027248;28;20021;-56
2021/01/24 11:42:03;;;;;;;24.23;7.38;;;3.60;99.90;;;;;;5034579;28;20536;-55
2021/01/24 11:44:28;;;;;;;20.88;6.88;;;3.60;99.90;;;;;;5034276;28;20051;-58
2021/01/24 11:46:54;;;;;;;21.13;8.52;;;3.70;99.90;;;;;;5034224;28;20032;-50
2021/01/24 11:49:20;;;;;;;21.83;6.78;;;3.80;99.90;;;;;;5015721;28;20064;-51
2021/01/24 11:51:46;;;;;;;22.95;9.30;;;3.70;99.90;;;;;;5014704;28;20116;-55
2021/01/24 11:54:12;;;;;;;20.52;7.15;;;3.70;99.90;;;;;;5032069;28;20031;-55
2021/01/24 11:56:40;;;;;;;18.75;6.40;;;3.70;99.90;;;;;;5033638;28;20065;-57
2021/01/24 11:59:05;;;;;;;19.70;6.10;;;3.70;99.90;;;;;;5034047;28;20029;-54
2021/01/24 12:01:31;;;;;;;18.92;5.57;;;3.70;99.90;;;;;;5033891;28;20403;-52
2021/01/24 12:03:56;;;;;;;18.20;5.10;;;3.70;99.90;;;;;;5016212;28;20560;-56
2021/01/24 12:06:22;;;;;;;14.98;5.00;;;3.90;99.90;;;;;;5034422;28;20030;-51
2021/01/24 12:08:48;;;;;;;19.50;5.28;;;4.00;99.90;;;;;;5031056;28;20488;-52
2021/01/24 12:11:14;;;;;;;16.73;4.35;;;4.00;99.90;;;;;;5014247;28;20037;-54
2021/01/24 12:13:40;;;;;;;18.02;4.78;;;3.90;99.90;;;;;;5013198;28;20072;-54
2021/01/24 12:16:06;;;;;;;16.60;4.93;;;3.80;99.90;;;;;;5012721;28;20513;-53
2021/01/24 12:18:32;;;;;;;16.58;4.90;;;3.90;99.90;;;;;;5014237;28;20080;-53
2021/01/24 12:20:58;;;;;;;19.40;4.95;;;3.90;99.90;;;;;;5012895;28;20470;-54
2021/01/24 12:23:23;;;;;;;17.27;5.22;;;3.80;99.90;;;;;;5015101;28;20025;-53
2021/01/24 12:25:49;;;;;;;15.70;4.45;;;3.90;99.90;;;;;;5014491;28;20026;-53
2021/01/24 12:28:15;;;;;;;16.90;4.68;;;3.80;99.90;;;;;;5014586;28;20461;-50
2021/01/24 12:30:40;;;;;;;14.90;4.30;;;3.90;99.90;;;;;;5014352;28;20026;-53
2021/01/24 12:33:11;;;;;;;16.63;5.05;;;3.90;99.90;;;;;;5014102;28;20553;-55
2021/01/24 12:35:40;;;;;;;17.27;4.53;;;3.90;99.90;;;;;;5013598;28;20037;-55
2021/01/24 12:38:06;;;;;;;15.20;4.13;;;3.90;99.90;;;;;;5012585;28;20425;-57
2021/01/24 12:40:32;;;;;;;17.80;4.35;;;3.90;99.90;;;;;;5013409;28;20018;-50
2021/01/24 12:42:58;;;;;;;21.33;5.30;;;3.80;99.90;;;;;;5013513;28;20026;-53